Time;durP1;ratioP1;P1;durP2;ratioP2;P2;SDS_P1;SDS_P2;PMS_P1;PMS_P2;Temp;Humidity;BMP_temperature;BMP_pressure;BME280_temperature;BME280_humidity;BME280_pressure;Samples;Min_cycle;Max_cycle;Signal;HPM_P1;HPM_P2
2022/11/09 04:01:52;;;;;;;13.73;2.40;;;12.00;99.90;;;;;;6164135;23;20450;-81
2022/11/09 04:04:18;;;;;;;6.63;1.73;;;12.00;99.90;;;;;;6185478;23;20017;-82
2022/11/09 04:06:43;;;;;;;11.43;1.95;;;12.00;99.90;;;;;;6185243;23;20024;-80
2022/11/09 04:09:09;;;;;;;9.45;2.15;;;12.00;99.90;;;;;;6185372;23;20142;-83
2022/11/09 04:11:37;;;;;;;15.32;2.95;;;12.00;99.90;;;;;;6155649;23;20021;-87
2022/11/09 04:14:03;;;;;;;10.02;2.50;;;12.10;99.90;;;;;;6158248;23;20006;-79
2022/11/09 04:16:28;;;;;;;10.02;2.33;;;12.00;99.90;;;;;;6155613;23;20085;-88
2022/11/09 04:18:54;;;;;;;11.88;2.25;;;12.00;99.90;;;;;;6158351;23;20013;-84
2022/11/09 04:21:20;;;;;;;8.82;2.08;;;12.00;99.90;;;;;;6155933;23;20010;-81
2022/11/09 04:23:48;;;;;;;11.13;2.67;;;12.00;99.90;;;;;;6130830;23;20026;-85
2022/11/09 04:26:14;;;;;;;12.40;2.78;;;12.00;99.90;;;;;;6155659;23;20500;-84
2022/11/09 04:28:39;;;;;;;12.55;2.28;;;12.10;99.90;;;;;;6155467;23;20053;-83
2022/11/09 04:31:05;;;;;;;6.85;2.22;;;12.10;99.90;;;;;;6157064;23;20458;-84
2022/11/09 04:33:31;;;;;;;9.20;2.08;;;12.10;99.90;;;;;;6157034;23;20396;-84
2022/11/09 04:36:04;;;;;;;11.35;2.75;;;12.20;99.90;;;;;;6131797;23;20025;-83
2022/11/09 04:38:30;;;;;;;11.73;2.50;;;12.20;99.90;;;;;;6154903;23;20012;-85
2022/11/09 04:41:02;;;;;;;11.32;2.40;;;12.20;99.90;;;;;;6155267;23;20013;-83
2022/11/09 04:43:28;;;;;;;9.82;2.40;;;12.20;99.90;;;;;;6158035;23;20059;-86
2022/11/09 04:45:54;;;;;;;11.77;2.35;;;12.20;99.90;;;;;;6159054;23;20058;-79
2022/11/09 04:48:19;;;;;;;13.70;2.33;;;12.20;99.90;;;;;;6182072;23;20006;-83
2022/11/09 04:50:45;;;;;;;10.02;2.50;;;12.30;99.90;;;;;;6157152;23;20436;-83
2022/11/09 04:53:14;;;;;;;13.68;2.60;;;12.30;99.90;;;;;;6181727;23;20069;-85
2022/11/09 04:55:40;;;;;;;8.63;2.38;;;12.30;99.90;;;;;;6181394;23;20045;-84
2022/11/09 04:58:07;;;;;;;11.73;2.25;;;12.30;99.90;;;;;;6181244;23;20031;-84
2022/11/09 05:00:33;;;;;;;11.35;2.90;;;12.30;99.90;;;;;;6155761;23;20107;-84
2022/11/09 05:03:00;;;;;;;11.43;2.42;;;12.20;99.90;;;;;;6158155;23;20092;-81
2022/11/09 05:05:26;;;;;;;13.23;2.80;;;12.30;99.90;;;;;;6181018;23;20022;-84
2022/11/09 05:07:52;;;;;;;11.57;2.72;;;12.20;99.90;;;;;;6156252;23;20049;-80
2022/11/09 05:10:17;;;;;;;13.38;2.45;;;12.20;99.90;;;;;;6181086;23;20025;-82
2022/11/09 05:12:43;;;;;;;9.60;2.10;;;12.20;99.90;;;;;;6156336;23;20023;-83
2022/11/09 05:15:10;;;;;;;7.93;2.40;;;12.20;99.90;;;;;;6157295;23;20088;-81
2022/11/09 05:17:36;;;;;;;10.75;2.60;;;12.20;99.90;;;;;;6155154;23;20022;-80
2022/11/09 05:20:02;;;;;;;23.13;3.65;;;12.20;99.90;;;;;;6155175;23;20014;-83
2022/11/09 05:25:11;;;;;;;12.23;2.78;;;12.20;99.90;;;;;;6155229;23;20025;-83
2022/11/09 05:27:37;;;;;;;16.23;2.53;;;12.10;99.90;;;;;;6157234;23;20014;-82
2022/11/09 05:30:04;;;;;;;10.93;2.42;;;12.10;99.90;;;;;;6157214;23;20015;-83
2022/11/09 05:32:29;;;;;;;12.48;2.40;;;12.10;99.90;;;;;;6155366;23;20039;-88
2022/11/09 05:34:55;;;;;;;12.18;1.92;;;12.10;99.90;;;;;;6180179;23;20467;-84
2022/11/09 05:37:21;;;;;;;11.93;2.50;;;12.10;99.90;;;;;;6156960;23;20502;-79
2022/11/09 05:39:47;;;;;;;6.47;1.88;;;12.10;99.90;;;;;;6155838;23;20032;-86
2022/11/09 05:42:12;;;;;;;11.27;2.45;;;12.10;99.90;;;;;;6130207;23;20021;-79
2022/11/09 05:44:38;;;;;;;13.60;2.47;;;12.10;99.90;;;;;;6154807;23;20451;-81
2022/11/09 05:47:04;;;;;;;10.98;2.08;;;12.10;99.90;;;;;;6179843;23;20017;-82
2022/11/09 05:49:33;;;;;;;12.05;1.92;;;12.00;99.90;;;;;;6156911;23;20014;-84
2022/11/09 05:51:58;;;;;;;11.88;2.58;;;12.00;99.90;;;;;;6153960;23;20057;-81
2022/11/09 05:54:24;;;;;;;11.25;2.45;;;12.00;99.90;;;;;;6154513;23;20025;-79
2022/11/09 05:56:50;;;;;;;13.02;2.20;;;12.10;99.90;;;;;;6154621;23;20010;-86
2022/11/09 05:59:15;;;;;;;8.32;2.17;;;12.10;99.90;;;;;;6130183;23;20439;-82
2022/11/09 06:01:41;;;;;;;13.40;2.80;;;12.00;99.90;;;;;;6154231;23;20048;-81
2022/11/09 06:04:06;;;;;;;8.68;2.53;;;12.00;99.90;;;;;;6154615;23;20197;-83
2022/11/09 06:06:32;;;;;;;8.90;2.38;;;12.00;99.90;;;;;;6154879;23;20308;-81
2022/11/09 06:08:58;;;;;;;11.05;2.60;;;12.00;99.90;;;;;;6155407;23;20017;-82
2022/11/09 06:11:23;;;;;;;15.15;3.22;;;12.00;99.90;;;;;;6154761;23;20045;-86
2022/11/09 06:13:49;;;;;;;12.82;2.55;;;12.00;99.90;;;;;;6156268;23;20021;-86
2022/11/09 06:16:15;;;;;;;13.00;2.35;;;12.00;99.90;;;;;;6156197;23;20431;-86
2022/11/09 06:18:41;;;;;;;6.60;1.60;;;12.00;99.90;;;;;;6154886;23;20016;-84
2022/11/09 06:21:06;;;;;;;9.95;2.10;;;12.00;99.90;;;;;;6157314;23;20017;-81
2022/11/09 06:23:33;;;;;;;11.60;2.20;;;12.10;99.90;;;;;;6156652;23;20522;-85
2022/11/09 06:26:02;;;;;;;10.95;2.35;;;12.00;99.90;;;;;;6154750;23;20017;-81
2022/11/09 06:28:28;;;;;;;9.80;2.85;;;12.00;99.90;;;;;;6179523;23;20017;-82
2022/11/09 06:31:01;;;;;;;9.13;2.58;;;12.00;99.90;;;;;;6179606;23;20013;-82
2022/11/09 06:33:29;;;;;;;9.43;1.80;;;12.00;99.90;;;;;;6154600;23;20021;-83
2022/11/09 06:35:56;;;;;;;12.15;2.92;;;11.90;99.90;;;;;;6180207;23;20049;-87
2022/11/09 06:38:22;;;;;;;20.20;3.90;;;11.90;99.90;;;;;;6156732;23;20010;-82
2022/11/09 06:40:55;;;;;;;9.25;2.53;;;11.90;99.90;;;;;;6155780;23;20013;-83
2022/11/09 06:43:20;;;;;;;12.18;2.00;;;11.80;99.90;;;;;;6155305;23;20017;-80
2022/11/09 06:45:46;;;;;;;10.55;1.80;;;11.80;99.90;;;;;;6156191;23;20140;-82
2022/11/09 06:48:12;;;;;;;6.45;1.70;;;11.80;99.90;;;;;;6154626;23;20444;-83
2022/11/09 06:50:38;;;;;;;9.55;2.00;;;11.80;99.90;;;;;;6154153;23;20010;-85
2022/11/09 06:53:06;;;;;;;9.52;1.98;;;11.80;99.90;;;;;;6178863;23;20069;-82
2022/11/09 06:55:34;;;;;;;10.30;2.33;;;11.80;99.90;;;;;;6155861;23;20117;-85
2022/11/09 06:58:03;;;;;;;14.40;2.28;;;11.80;99.90;;;;;;6155311;23;20317;-84
2022/11/09 07:00:29;;;;;;;12.40;1.95;;;11.70;99.90;;;;;;6154841;23;20014;-83
2022/11/09 07:02:55;;;;;;;12.20;2.13;;;11.70;99.90;;;;;;6157060;23;20013;-85
2022/11/09 07:05:21;;;;;;;13.32;2.30;;;11.70;99.90;;;;;;6156101;23;20440;-84
2022/11/09 07:07:46;;;;;;;10.60;2.38;;;11.70;99.90;;;;;;6181578;23;20018;-82
2022/11/09 07:10:12;;;;;;;10.93;1.98;;;11.70;99.90;;;;;;6181005;23;20048;-83
2022/11/09 07:12:38;;;;;;;11.35;2.13;;;11.70;99.90;;;;;;6156399;23;20053;-84
2022/11/09 07:15:04;;;;;;;12.82;1.85;;;11.70;99.90;;;;;;6132058;23;20013;-83
2022/11/09 07:17:31;;;;;;;8.05;2.08;;;11.70;99.90;;;;;;6156078;23;20009;-82
2022/11/09 07:19:57;;;;;;;9.38;1.95;;;11.70;99.90;;;;;;6181317;23;20018;-85
2022/11/09 07:22:22;;;;;;;12.90;2.33;;;11.70;99.90;;;;;;6157840;23;20006;-83
2022/11/09 07:24:48;;;;;;;14.45;2.55;;;11.70;99.90;;;;;;6155945;23;20435;-83
2022/11/09 07:27:14;;;;;;;10.40;2.58;;;11.70;99.90;;;;;;6156034;23;20009;-83
2022/11/09 07:29:39;;;;;;;14.38;2.60;;;11.70;99.90;;;;;;6155850;23;20065;-83
2022/11/09 07:32:05;;;;;;;15.18;2.33;;;11.60;99.90;;;;;;6157177;23;20009;-86
2022/11/09 07:34:31;;;;;;;12.15;2.42;;;11.60;99.90;;;;;;6156291;23;20022;-84
2022/11/09 07:36:56;;;;;;;15.80;2.88;;;11.60;99.90;;;;;;6157948;23;20014;-82
2022/11/09 07:39:22;;;;;;;14.45;2.50;;;11.60;99.90;;;;;;6157901;23;20502;-81
2022/11/09 07:41:48;;;;;;;15.95;3.50;;;11.60;99.90;;;;;;6157979;23;20049;-86
2022/11/09 07:44:17;;;;;;;13.93;2.47;;;11.70;99.90;;;;;;6158141;23;20021;-81
2022/11/09 07:46:45;;;;;;;12.23;2.67;;;11.70;99.90;;;;;;6157957;23;20017;-87
2022/11/09 07:49:12;;;;;;;14.63;2.97;;;11.60;99.90;;;;;;6155399;23;20407;-86
2022/11/09 07:51:38;;;;;;;14.40;2.33;;;11.70;99.90;;;;;;6156279;23;20482;-84
2022/11/09 07:54:04;;;;;;;13.02;2.75;;;11.70;99.90;;;;;;6157497;23;20009;-82
2022/11/09 07:56:30;;;;;;;10.93;2.60;;;11.70;99.90;;;;;;6180577;23;20005;-83
2022/11/09 07:58:56;;;;;;;11.30;2.10;;;11.70;99.90;;;;;;6155381;23;20017;-85
2022/11/09 08:01:22;;;;;;;11.50;2.70;;;11.70;99.90;;;;;;6155490;23;20064;-81
2022/11/09 08:03:47;;;;;;;12.95;1.98;;;11.80;99.90;;;;;;6158736;23;20083;-88
2022/11/09 08:06:13;;;;;;;12.77;2.67;;;11.80;99.90;;;;;;6155653;23;20055;-87
2022/11/09 08:08:39;;;;;;;12.82;2.53;;;11.80;99.90;;;;;;6156965;23;20018;-86
2022/11/09 08:11:04;;;;;;;14.93;2.30;;;11.90;99.90;;;;;;6156236;23;20026;-82
2022/11/09 08:13:30;;;;;;;11.80;2.13;;;11.90;99.90;;;;;;6155697;23;20017;-86
2022/11/09 08:15:59;;;;;;;17.10;2.47;;;12.00;99.90;;;;;;6158139;23;20045;-83
2022/11/09 08:18:24;;;;;;;13.18;2.65;;;12.00;99.90;;;;;;6181300;23;20013;-82
2022/11/09 08:20:50;;;;;;;16.30;2.67;;;12.00;99.90;;;;;;6156906;23;20014;-86
2022/11/09 08:23:18;;;;;;;18.45;2.60;;;12.00;99.90;;;;;;6159872;23;20088;-88
2022/11/09 08:25:44;;;;;;;10.27;2.70;;;12.00;99.90;;;;;;6156780;23;20344;-83
2022/11/09 08:28:10;;;;;;;13.93;2.50;;;12.20;99.90;;;;;;6180977;23;20018;-84
2022/11/09 08:30:35;;;;;;;10.90;2.33;;;12.40;99.90;;;;;;6181219;23;20092;-82
2022/11/09 08:33:02;;;;;;;10.40;2.13;;;12.40;99.90;;;;;;6157794;23;20052;-83
2022/11/09 08:35:28;;;;;;;16.35;2.85;;;12.50;99.90;;;;;;6156194;23;20013;-85
2022/11/09 08:37:55;;;;;;;15.57;3.90;;;12.50;99.90;;;;;;6180660;23;20044;-84
2022/11/09 08:40:25;;;;;;;8.90;2.10;;;12.50;99.90;;;;;;6155952;23;20510;-82
2022/11/09 08:42:51;;;;;;;5.38;1.83;;;12.80;99.90;;;;;;6156418;23;20022;-86
2022/11/09 08:45:17;;;;;;;15.25;3.20;;;13.30;99.90;;;;;;6155846;23;20022;-83
2022/11/09 08:47:44;;;;;;;16.30;2.50;;;13.60;99.90;;;;;;6155665;23;20025;-82
2022/11/09 08:50:12;;;;;;;16.77;2.70;;;14.20;99.90;;;;;;6180914;23;20092;-82
2022/11/09 08:52:41;;;;;;;11.18;2.22;;;14.60;99.90;;;;;;6156073;23;20048;-87
2022/11/09 08:55:07;;;;;;;8.90;2.55;;;14.70;99.90;;;;;;6157753;23;20423;-83
2022/11/09 08:57:32;;;;;;;14.05;2.75;;;14.70;99.90;;;;;;6155523;23;20009;-82
2022/11/09 08:59:58;;;;;;;13.57;2.83;;;14.40;99.90;;;;;;6158481;23;20011;-89
2022/11/09 09:02:24;;;;;;;9.57;2.50;;;14.30;99.90;;;;;;6156679;23;20017;-85
2022/11/09 09:04:50;;;;;;;14.98;2.63;;;14.10;99.90;;;;;;6156742;23;20079;-81
2022/11/09 09:07:16;;;;;;;14.32;2.50;;;13.80;99.90;;;;;;6157114;23;20079;-86
2022/11/09 09:09:42;;;;;;;10.48;2.35;;;14.00;99.90;;;;;;6156007;23;20021;-81
2022/11/09 09:12:08;;;;;;;8.77;2.50;;;14.30;99.90;;;;;;6180573;23;20013;-84
2022/11/09 09:14:34;;;;;;;17.40;2.63;;;14.50;99.90;;;;;;6155241;23;20325;-84
2022/11/09 09:17:00;;;;;;;15.40;2.72;;;14.80;99.90;;;;;;6155692;23;20048;-85
2022/11/09 09:19:27;;;;;;;11.20;2.25;;;14.80;99.90;;;;;;6156894;23;20012;-86
2022/11/09 09:21:52;;;;;;;14.65;3.30;;;14.90;99.90;;;;;;6157457;23;20009;-85
2022/11/09 09:24:18;;;;;;;9.95;3.00;;;14.70;99.90;;;;;;6158275;23;20462;-81
2022/11/09 09:26:44;;;;;;;16.17;3.05;;;14.40;99.90;;;;;;6157289;23;20009;-82
2022/11/09 09:29:12;;;;;;;14.95;2.63;;;14.10;99.90;;;;;;6161328;23;20084;-80
2022/11/09 09:31:38;;;;;;;11.88;2.55;;;14.00;99.90;;;;;;6159589;23;20018;-83
2022/11/09 09:34:04;;;;;;;13.00;2.85;;;13.90;99.90;;;;;;6188240;23;20017;-85
2022/11/09 09:36:29;;;;;;;12.15;3.38;;;13.80;99.90;;;;;;6157125;23;20021;-83
2022/11/09 09:38:59;;;;;;;14.00;3.53;;;13.70;99.90;;;;;;6131761;23;20020;-80
2022/11/09 09:41:50;;;;;;;15.15;3.33;;;13.70;99.90;;;;;;6158487;23;20037;-83
2022/11/09 09:44:30;;;;;;;10.18;2.88;;;13.70;99.90;;;;;;6149775;23;20344;-81
2022/11/09 09:47:02;;;;;;;13.50;3.60;;;13.70;99.90;;;;;;6155217;23;20013;-85
2022/11/09 09:49:31;;;;;;;11.18;3.00;;;13.80;99.90;;;;;;6156249;23;20020;-84
2022/11/09 09:52:05;;;;;;;10.45;3.15;;;13.80;99.90;;;;;;6155870;23;20024;-82
2022/11/09 09:54:38;;;;;;;10.53;3.40;;;13.90;99.90;;;;;;6156683;23;20359;-85
2022/11/09 09:57:17;;;;;;;13.90;3.70;;;14.00;99.90;;;;;;6157447;23;20005;-83
2022/11/09 09:59:53;;;;;;;13.30;3.55;;;14.00;99.90;;;;;;6158341;23;20017;-82
2022/11/09 10:02:25;;;;;;;11.43;2.78;;;14.20;99.90;;;;;;6157525;23;20144;-81
2022/11/09 10:04:53;;;;;;;10.40;3.13;;;14.20;99.90;;;;;;6157899;23;20010;-84
2022/11/09 10:07:27;;;;;;;16.25;3.60;;;14.30;99.90;;;;;;6180166;23;20491;-86
2022/11/09 10:10:35;;;;;;;18.73;4.07;;;14.20;99.90;;;;;;6156556;23;20045;-83
2022/11/09 10:13:29;;;;;;;9.82;3.33;;;14.10;99.90;;;;;;6156629;23;20049;-86
2022/11/09 10:16:02;;;;;;;13.18;3.70;;;13.90;99.90;;;;;;6157533;23;20013;-84
2022/11/09 10:18:33;;;;;;;13.30;3.70;;;13.80;99.90;;;;;;6131187;23;20146;-84
2022/11/09 10:21:18;;;;;;;13.00;3.08;;;13.70;99.90;;;;;;6156267;23;20466;-87
2022/11/09 10:24:16;;;;;;;14.65;3.72;;;13.60;99.90;;;;;;6157821;23;20060;-85
2022/11/09 10:26:54;;;;;;;11.07;3.58;;;13.50;99.90;;;;;;6155334;23;20017;-85
2022/11/09 10:29:26;;;;;;;12.23;3.83;;;13.50;99.90;;;;;;6156095;23;20355;-82
2022/11/09 10:32:00;;;;;;;13.90;3.20;;;13.40;99.90;;;;;;6160317;23;20014;-80
2022/11/09 10:34:35;;;;;;;12.37;3.40;;;13.60;99.90;;;;;;6156985;23;20072;-82
2022/11/09 10:37:09;;;;;;;12.32;3.60;;;13.60;99.90;;;;;;6181300;23;20084;-79
2022/11/09 10:39:41;;;;;;;16.70;3.72;;;13.60;99.90;;;;;;6132662;23;20046;-79
2022/11/09 10:42:10;;;;;;;13.70;3.45;;;13.60;99.90;;;;;;6156605;23;20024;-82
2022/11/09 10:44:35;;;;;;;13.02;3.08;;;13.60;99.90;;;;;;6159212;23;20335;-84
2022/11/09 10:47:01;;;;;;;11.05;3.33;;;13.70;99.90;;;;;;6157155;23;20100;-82
2022/11/09 10:49:27;;;;;;;17.50;4.00;;;13.70;99.90;;;;;;6157079;23;20017;-80
2022/11/09 10:51:52;;;;;;;10.80;3.47;;;13.70;99.90;;;;;;6156983;23;20025;-86
2022/11/09 10:54:20;;;;;;;14.00;3.50;;;13.70;99.90;;;;;;6157214;23;20017;-84
2022/11/09 10:56:59;;;;;;;9.80;3.83;;;13.70;99.90;;;;;;6182121;23;20013;-85
2022/11/09 10:59:40;;;;;;;15.90;3.25;;;13.70;99.90;;;;;;6132830;23;20016;-87
2022/11/09 11:02:24;;;;;;;10.70;3.30;;;13.70;99.90;;;;;;6158504;23;20455;-82
2022/11/09 11:05:16;;;;;;;18.83;4.07;;;13.70;99.90;;;;;;6156644;23;20045;-83
2022/11/09 11:07:41;;;;;;;11.32;3.20;;;13.70;99.90;;;;;;6145475;23;20017;-85
2022/11/09 11:10:16;;;;;;;12.38;3.42;;;13.70;99.90;;;;;;6157419;23;20024;-81
2022/11/09 11:13:16;;;;;;;12.02;3.55;;;13.70;99.90;;;;;;6156498;23;20013;-85
2022/11/09 11:15:42;;;;;;;12.90;3.20;;;13.60;99.90;;;;;;6159106;23;20014;-85
2022/11/09 11:18:23;;;;;;;9.85;3.85;;;13.50;99.90;;;;;;6158825;23;20060;-87
2022/11/09 11:21:10;;;;;;;11.77;3.78;;;13.50;99.90;;;;;;6156915;23;20376;-84
2022/11/09 11:23:36;;;;;;;14.88;4.10;;;13.40;99.90;;;;;;6155747;23;20068;-78
2022/11/09 11:26:31;;;;;;;14.65;3.92;;;13.40;99.90;;;;;;6155687;23;20022;-82
2022/11/09 11:29:05;;;;;;;12.63;3.63;;;13.40;99.90;;;;;;6156035;23;20079;-82
2022/11/09 11:31:31;;;;;;;12.35;3.90;;;13.40;99.90;;;;;;6181610;23;20439;-81
2022/11/09 11:33:57;;;;;;;12.40;3.72;;;13.40;99.90;;;;;;6157755;23;20017;-77
2022/11/09 11:36:33;;;;;;;9.50;4.00;;;13.40;99.90;;;;;;6157879;23;20010;-84
2022/11/09 11:39:04;;;;;;;18.88;4.53;;;13.40;99.90;;;;;;6156201;23;20013;-80
2022/11/09 11:41:29;;;;;;;12.68;3.70;;;13.40;99.90;;;;;;6156003;23;20009;-82
2022/11/09 11:44:13;;;;;;;12.43;3.85;;;13.30;99.90;;;;;;6156082;23;20317;-84
2022/11/09 11:46:51;;;;;;;11.52;4.50;;;13.30;99.90;;;;;;6155870;23;20437;-78
2022/11/09 11:49:38;;;;;;;11.85;3.80;;;13.30;99.90;;;;;;6156198;23;20549;-84
2022/11/09 11:52:42;;;;;;;15.02;4.32;;;13.30;99.90;;;;;;6155570;23;20029;-80
2022/11/09 11:55:24;;;;;;;16.90;4.22;;;13.30;99.90;;;;;;6155506;23;20014;-84
2022/11/09 11:57:58;;;;;;;11.07;3.80;;;13.20;99.90;;;;;;6155649;23;20436;-86
2022/11/09 12:00:24;;;;;;;15.20;4.70;;;13.20;99.90;;;;;;6155175;23;20095;-83
2022/11/09 12:03:27;;;;;;;15.20;4.03;;;13.20;99.90;;;;;;6131531;23;20017;-83
2022/11/09 12:06:15;;;;;;;15.25;3.75;;;13.20;99.90;;;;;;6157425;23;20013;-79
2022/11/09 12:08:41;;;;;;;13.27;3.70;;;13.30;99.90;;;;;;6155471;23;20021;-83
2022/11/09 12:11:18;;;;;;;11.30;3.63;;;13.30;99.90;;;;;;6157420;23;20025;-82
2022/11/09 12:14:00;;;;;;;15.93;3.42;;;13.40;99.90;;;;;;6155410;23;20018;-84
2022/11/09 12:16:39;;;;;;;10.60;3.20;;;13.50;99.90;;;;;;6180523;23;20014;-77
2022/11/09 12:19:28;;;;;;;14.13;3.55;;;13.70;99.90;;;;;;6181314;23;20037;-85
2022/11/09 12:22:05;;;;;;;12.05;2.78;;;13.60;99.90;;;;;;6156236;23;20018;-85
2022/11/09 12:24:53;;;;;;;16.08;3.05;;;13.60;99.90;;;;;;6130790;23;20024;-79
2022/11/09 12:27:34;;;;;;;10.60;2.63;;;13.60;99.90;;;;;;6180967;23;20013;-81
2022/11/09 12:30:20;;;;;;;9.23;2.72;;;13.50;99.90;;;;;;6155177;23;20017;-81
2022/11/09 12:33:27;;;;;;;12.65;2.95;;;13.50;99.90;;;;;;6155622;23;20071;-83
2022/11/09 12:36:08;;;;;;;10.68;3.67;;;13.50;99.90;;;;;;6071997;23;20150;-84
2022/11/09 12:38:44;;;;;;;9.50;2.33;;;13.50;99.90;;;;;;6072238;23;20074;-82
2022/11/09 12:41:18;;;;;;;10.95;2.80;;;13.50;99.90;;;;;;6123526;23;20021;-79
2022/11/09 12:43:53;;;;;;;10.57;2.42;;;13.50;99.90;;;;;;6156917;23;20076;-80
2022/11/09 12:46:23;;;;;;;10.52;2.17;;;13.50;99.90;;;;;;6155109;23;20022;-86
2022/11/09 12:48:49;;;;;;;6.07;1.77;;;13.50;99.90;;;;;;6155133;23;20068;-82
2022/11/09 12:51:16;;;;;;;5.78;1.80;;;13.50;99.90;;;;;;6155378;23;20021;-86
2022/11/09 12:53:41;;;;;;;9.20;2.42;;;13.50;99.90;;;;;;6155196;23;20344;-79
2022/11/09 12:56:18;;;;;;;10.20;2.03;;;13.50;99.90;;;;;;6155421;23;20021;-81
2022/11/09 12:58:44;;;;;;;7.43;1.70;;;13.50;99.90;;;;;;6180006;23;20067;-85
2022/11/09 13:01:31;;;;;;;8.27;2.20;;;13.50;99.90;;;;;;6154334;23;20016;-82
2022/11/09 13:04:00;;;;;;;7.32;1.63;;;13.50;99.90;;;;;;6139989;23;20104;-81
2022/11/09 13:06:31;;;;;;;5.90;1.90;;;13.50;99.90;;;;;;6180091;23;20025;-83
2022/11/09 13:09:21;;;;;;;7.97;1.92;;;13.50;99.90;;;;;;6157038;23;20010;-82
2022/11/09 13:11:48;;;;;;;7.75;2.13;;;13.50;99.90;;;;;;6155530;23;20088;-82
2022/11/09 13:14:30;;;;;;;8.93;1.70;;;13.60;99.90;;;;;;6181118;23;20024;-80
2022/11/09 13:17:01;;;;;;;8.75;2.08;;;13.70;99.90;;;;;;6154967;23;20010;-83
2022/11/09 13:19:38;;;;;;;7.22;1.83;;;13.90;99.90;;;;;;6154658;23;20100;-80
2022/11/09 13:22:13;;;;;;;8.18;1.60;;;14.20;99.90;;;;;;6154985;23;20017;-79
2022/11/09 13:24:51;;;;;;;5.53;2.15;;;14.30;99.90;;;;;;6155183;23;20018;-84
2022/11/09 13:27:47;;;;;;;10.40;1.83;;;14.10;99.90;;;;;;6154919;23;20044;-81
2022/11/09 13:30:35;;;;;;;5.75;1.23;;;14.00;99.90;;;;;;6143152;23;20056;-84
2022/11/09 13:33:04;;;;;;;15.55;1.33;;;13.90;99.90;;;;;;6155312;23;20024;-82
2022/11/09 13:35:39;;;;;;;8.73;1.70;;;13.80;99.90;;;;;;6154476;23;20013;-83
2022/11/09 13:38:20;;;;;;;5.90;2.42;;;13.80;99.90;;;;;;6155728;23;20014;-84
2022/11/09 13:40:53;;;;;;;8.02;1.45;;;13.80;99.90;;;;;;6180572;23;20017;-86
2022/11/09 13:43:21;;;;;;;4.05;0.90;;;13.80;99.90;;;;;;6156838;23;20013;-83
2022/11/09 13:45:49;;;;;;;4.85;1.35;;;13.70;99.90;;;;;;6179750;23;20024;-85
2022/11/09 13:48:45;;;;;;;6.03;1.30;;;13.70;99.90;;;;;;6155238;23;20021;-85
2022/11/09 13:51:25;;;;;;;8.18;2.35;;;13.60;99.90;;;;;;6155541;23;20020;-86
2022/11/09 13:54:16;;;;;;;5.28;1.23;;;13.50;99.90;;;;;;6154827;23;20025;-83
2022/11/09 13:56:44;;;;;;;5.15;1.23;;;13.50;99.90;;;;;;6152792;23;20017;-83
2022/11/09 13:59:34;;;;;;;5.03;1.10;;;13.40;99.90;;;;;;6155303;23;20013;-85
2022/11/09 14:02:01;;;;;;;6.78;1.50;;;13.40;99.90;;;;;;6154972;23;20017;-82
2022/11/09 14:04:37;;;;;;;2.25;1.10;;;13.30;99.90;;;;;;6155000;23;20057;-84
2022/11/09 14:07:20;;;;;;;5.80;1.25;;;13.20;99.90;;;;;;6157554;23;20013;-85
2022/11/09 14:10:31;;;;;;;5.32;1.80;;;13.20;99.90;;;;;;6179984;23;20060;-82
2022/11/09 14:13:35;;;;;;;8.60;1.40;;;13.00;99.90;;;;;;6155633;23;20467;-83
2022/11/09 14:16:24;;;;;;;5.97;1.40;;;12.90;99.90;;;;;;6079869;23;20050;-81
2022/11/09 14:18:55;;;;;;;6.13;1.30;;;12.70;99.90;;;;;;6158999;23;20010;-87
2022/11/09 14:21:40;;;;;;;4.65;1.58;;;12.60;99.90;;;;;;6157606;23;20084;-84
2022/11/09 14:24:27;;;;;;;8.75;1.70;;;12.40;99.90;;;;;;6159763;23;20014;-85
2022/11/09 14:27:08;;;;;;;10.57;2.15;;;12.30;99.90;;;;;;6158088;23;20054;-80
2022/11/09 14:29:35;;;;;;;8.18;2.38;;;12.10;99.90;;;;;;6158068;23;20455;-84
2022/11/09 14:32:22;;;;;;;9.48;2.60;;;12.10;99.90;;;;;;6182265;23;20023;-85
2022/11/09 14:34:48;;;;;;;13.18;3.22;;;12.00;99.90;;;;;;6159588;23;20056;-84
2022/11/09 14:37:15;;;;;;;8.73;2.72;;;12.00;99.90;;;;;;6159342;23;20423;-85
2022/11/09 14:39:40;;;;;;;11.30;2.60;;;11.90;99.90;;;;;;6132939;23;20458;-82
2022/11/09 14:42:06;;;;;;;10.77;3.05;;;11.80;99.90;;;;;;6132676;23;20089;-83
2022/11/09 14:44:41;;;;;;;13.55;2.97;;;11.80;99.90;;;;;;6159373;23;20017;-84
2022/11/09 14:47:30;;;;;;;10.93;2.40;;;11.80;99.90;;;;;;6157764;23;20411;-82
2022/11/09 14:49:57;;;;;;;8.45;2.78;;;11.70;99.90;;;;;;6158366;23;20018;-82
2022/11/09 14:52:28;;;;;;;11.63;2.83;;;11.70;99.90;;;;;;6182405;23;20049;-86
2022/11/09 14:54:54;;;;;;;8.93;3.20;;;11.70;99.90;;;;;;6163433;23;20444;-78
2022/11/09 14:57:21;;;;;;;8.70;2.85;;;11.70;99.90;;;;;;6169858;23;20016;-79
2022/11/09 14:59:47;;;;;;;6.32;2.60;;;11.60;99.90;;;;;;6163826;23;20478;-82
2022/11/09 15:02:19;;;;;;;14.10;3.08;;;11.60;99.90;;;;;;6184699;23;20013;-80
2022/11/09 15:04:55;;;;;;;8.93;2.58;;;11.70;99.90;;;;;;6182191;23;20010;-85
2022/11/09 15:07:23;;;;;;;10.57;2.60;;;11.70;99.90;;;;;;6157453;23;20017;-84
2022/11/09 15:10:07;;;;;;;9.88;2.75;;;11.60;99.90;;;;;;6183338;23;20026;-83
2022/11/09 15:12:34;;;;;;;4.00;1.90;;;11.60;99.90;;;;;;6182363;23;20023;-83
2022/11/09 15:15:03;;;;;;;8.75;2.03;;;11.60;99.90;;;;;;6157080;23;20021;-83
2022/11/09 15:17:36;;;;;;;7.55;2.15;;;11.50;99.90;;;;;;6181966;23;20462;-81
2022/11/09 15:20:07;;;;;;;12.32;3.58;;;11.50;99.90;;;;;;6157454;23;20009;-84
2022/11/09 15:22:36;;;;;;;9.15;2.70;;;11.50;99.90;;;;;;6157024;23;20018;-81
2022/11/09 15:25:32;;;;;;;11.75;3.47;;;11.50;99.90;;;;;;6159538;23;20018;-84
2022/11/09 15:28:07;;;;;;;;;;;11.50;99.90;;;;;;6157800;23;20017;-85
2022/11/09 15:30:37;;;;;;;10.02;2.47;;;11.50;99.90;;;;;;6156944;23;20032;-84
2022/11/09 15:33:18;;;;;;;12.40;2.60;;;11.40;99.90;;;;;;6132398;23;20013;-83
2022/11/09 15:35:56;;;;;;;10.85;2.67;;;11.40;99.90;;;;;;6159437;23;20014;-84
2022/11/09 15:38:36;;;;;;;11.85;2.90;;;11.40;99.90;;;;;;6158348;23;20017;-82
2022/11/09 15:41:08;;;;;;;12.40;3.55;;;11.40;99.90;;;;;;6156054;23;20396;-82
2022/11/09 15:43:33;;;;;;;9.07;2.55;;;11.40;99.90;;;;;;6181422;23;20458;-82
2022/11/09 15:45:59;;;;;;;10.90;2.65;;;11.30;99.90;;;;;;6158771;23;20014;-84
2022/11/09 15:48:25;;;;;;;7.60;2.60;;;11.30;99.90;;;;;;6159406;23;20033;-83
2022/11/09 15:50:51;;;;;;;7.30;2.03;;;11.30;99.90;;;;;;6158686;23;20432;-80
2022/11/09 15:53:17;;;;;;;9.73;2.03;;;11.30;99.90;;;;;;6156316;23;20079;-80
2022/11/09 15:55:53;;;;;;;;;;;;;;;;;;;;;
2022/11/09 15:58:19;;;;;;;9.48;2.10;;;11.40;99.90;;;;;;6157274;23;20021;-83
2022/11/09 16:00:45;;;;;;;12.20;2.25;;;11.30;99.90;;;;;;6181092;23;20072;-84
2022/11/09 16:03:11;;;;;;;10.40;1.92;;;11.30;99.90;;;;;;6181152;23;20028;-84
2022/11/09 16:05:37;;;;;;;8.63;2.35;;;11.30;99.90;;;;;;6132143;23;20014;-83
2022/11/09 16:08:03;;;;;;;9.98;1.70;;;11.30;99.90;;;;;;6156350;23;20021;-86
2022/11/09 16:10:29;;;;;;;6.20;2.40;;;11.30;99.90;;;;;;6157978;23;20013;-83
2022/11/09 16:12:58;;;;;;;8.50;2.00;;;11.30;99.90;;;;;;6158524;23;20010;-80
2022/11/09 16:15:23;;;;;;;6.70;1.40;;;11.30;99.90;;;;;;6158096;23;20014;-83
2022/11/09 16:17:50;;;;;;;11.70;1.70;;;11.30;99.90;;;;;;6158319;23;20431;-84
2022/11/09 16:20:19;;;;;;;8.85;1.92;;;11.20;99.90;;;;;;6156453;23;20024;-81
2022/11/09 16:22:45;;;;;;;9.10;2.17;;;11.30;99.90;;;;;;6157996;23;20016;-84
2022/11/09 16:25:11;;;;;;;12.65;1.85;;;11.30;99.90;;;;;;6156221;23;20094;-81
2022/11/09 16:27:38;;;;;;;13.57;1.65;;;11.30;99.90;;;;;;6181107;23;20068;-83
2022/11/09 16:30:05;;;;;;;7.53;1.80;;;11.30;99.90;;;;;;6157771;23;20391;-80
2022/11/09 16:32:30;;;;;;;10.35;2.00;;;11.30;99.90;;;;;;6156072;23;20452;-81
2022/11/09 16:34:56;;;;;;;7.97;1.48;;;11.20;99.90;;;;;;6180885;23;20025;-81
2022/11/09 16:37:22;;;;;;;7.75;1.80;;;11.30;99.90;;;;;;6157540;23;20009;-82
2022/11/09 16:39:49;;;;;;;9.48;1.70;;;11.30;99.90;;;;;;6155770;23;20021;-80
2022/11/09 16:42:17;;;;;;;9.52;2.00;;;11.30;99.90;;;;;;6157750;23;20009;-83
2022/11/09 16:44:46;;;;;;;10.07;1.98;;;11.20;99.90;;;;;;6155927;23;20060;-85
2022/11/09 16:47:15;;;;;;;12.02;2.08;;;11.20;99.90;;;;;;6157014;23;20037;-82
2022/11/09 16:49:41;;;;;;;12.90;3.08;;;11.20;99.90;;;;;;6180200;23;20018;-84
2022/11/09 16:52:06;;;;;;;12.60;2.30;;;11.20;99.90;;;;;;6179652;23;20021;-83
2022/11/09 16:54:32;;;;;;;10.13;2.40;;;11.20;99.90;;;;;;6154944;23;20452;-83
2022/11/09 16:56:58;;;;;;;14.00;2.55;;;11.20;99.90;;;;;;6130520;23;20014;-81
2022/11/09 16:59:25;;;;;;;18.23;2.38;;;11.30;99.90;;;;;;6156900;23;20012;-82
2022/11/09 17:01:51;;;;;;;18.45;2.75;;;11.20;99.90;;;;;;6179386;23;20128;-80
2022/11/09 17:04:18;;;;;;;18.42;3.22;;;11.30;99.90;;;;;;6154327;23;20351;-79